createdAt,value
2023-05-08T00:11:22.132Z,53.40
2023-05-08T00:26:23.614Z,53.40
2023-05-08T00:41:25.081Z,54.20
2023-05-08T00:56:26.540Z,53.10
2023-05-08T01:11:28.004Z,53.20
2023-05-08T01:26:29.465Z,53.10
2023-05-08T01:41:30.936Z,53.00
2023-05-08T01:56:32.399Z,52.90
2023-05-08T02:11:33.861Z,52.90
2023-05-08T02:26:35.319Z,52.80
2023-05-08T02:41:36.786Z,52.80
2023-05-08T02:56:38.243Z,53.70
2023-05-08T03:11:39.706Z,52.60
2023-05-08T03:26:41.166Z,52.60
2023-05-08T03:41:42.706Z,52.60
2023-05-08T03:56:44.165Z,52.50
2023-05-08T04:11:45.637Z,52.50
2023-05-08T04:26:47.105Z,52.40
2023-05-08T04:41:48.675Z,52.40
2023-05-08T04:56:50.179Z,52.30
2023-05-08T05:11:51.641Z,52.70
2023-05-08T05:26:53.135Z,52.20
2023-05-08T05:41:54.593Z,52.10
2023-05-08T05:56:56.059Z,52.20
2023-05-08T06:11:57.530Z,52.00
2023-05-08T06:26:59.261Z,52.00
2023-05-08T06:42:00.750Z,52.00
2023-05-08T06:57:02.223Z,51.60
2023-05-08T07:12:03.697Z,51.50
2023-05-08T07:27:05.164Z,51.20
2023-05-08T07:42:06.627Z,51.00
2023-05-08T07:57:08.083Z,50.90
2023-05-08T08:12:09.540Z,50.80
2023-05-08T08:27:11.002Z,50.70
2023-05-08T08:42:12.475Z,50.40
2023-05-08T08:57:13.980Z,50.20
2023-05-08T09:12:15.439Z,50.20
2023-05-08T09:27:16.904Z,50.10
2023-05-08T09:42:18.365Z,50.00
2023-05-08T09:57:19.837Z,49.70
2023-05-08T10:12:21.308Z,49.70
2023-05-08T10:27:22.783Z,49.60
2023-05-08T10:42:24.276Z,49.50
2023-05-08T10:57:25.748Z,49.20
2023-05-08T11:12:27.221Z,48.70
2023-05-08T11:27:28.700Z,48.30
2023-05-08T11:42:30.157Z,48.40
2023-05-08T11:57:31.642Z,48.20
2023-05-08T12:12:33.107Z,47.80
2023-05-08T12:27:34.565Z,47.40
2023-05-08T12:42:36.031Z,47.40
2023-05-08T12:57:37.582Z,47.50
2023-05-08T13:12:39.099Z,47.20
2023-05-08T13:27:40.595Z,47.50
2023-05-08T13:42:42.144Z,47.60
2023-05-08T13:57:43.605Z,47.70
2023-05-08T14:12:45.097Z,47.40
2023-05-08T14:27:46.591Z,47.20
2023-05-08T14:42:48.060Z,47.10
2023-05-08T14:57:49.558Z,48.10
2023-05-08T15:12:51.089Z,47.30
2023-05-08T15:27:52.627Z,47.50
2023-05-08T15:42:54.281Z,47.50
2023-05-08T15:57:55.761Z,47.90
2023-05-08T16:12:57.290Z,47.90
2023-05-08T16:27:58.775Z,47.90
2023-05-08T16:43:00.259Z,48.00
2023-05-08T16:58:01.781Z,48.20
2023-05-08T17:13:03.300Z,48.30
2023-05-08T17:28:04.865Z,48.40
2023-05-08T17:43:06.350Z,48.60
2023-05-08T17:58:07.821Z,48.90
2023-05-08T18:13:09.311Z,49.00
2023-05-08T18:28:10.814Z,49.10
2023-05-08T18:43:12.307Z,49.30
2023-05-08T18:58:13.787Z,49.50
2023-05-08T19:13:15.406Z,49.60
2023-05-08T19:28:16.954Z,49.70
2023-05-08T19:43:18.416Z,49.70
2023-05-08T19:58:19.898Z,50.00
2023-05-08T20:13:21.604Z,50.10
2023-05-08T20:28:23.169Z,50.30
2023-05-08T20:43:24.646Z,50.30
2023-05-08T20:58:26.125Z,50.50
2023-05-08T21:13:27.631Z,51.40
2023-05-08T21:28:29.159Z,50.70
2023-05-08T21:43:30.641Z,50.70
2023-05-08T21:58:32.119Z,50.80
2023-05-08T22:13:34.726Z,51.00
2023-05-08T22:28:36.210Z,51.10
2023-05-08T22:43:37.660Z,51.20
2023-05-08T22:58:39.119Z,51.20
2023-05-08T23:13:40.590Z,51.30
2023-05-08T23:28:42.067Z,51.40
2023-05-08T23:43:43.608Z,51.40
2023-05-08T23:58:45.070Z,51.40
